Time;durP1;ratioP1;P1;durP2;ratioP2;P2;SDS_P1;SDS_P2;PMS_P1;PMS_P2;Temp;Humidity;BMP_temperature;BMP_pressure;BME280_temperature;BME280_humidity;BME280_pressure;Samples;Min_cycle;Max_cycle;Signal;HPM_P1;HPM_P2
2022/11/25 00:01:12;;;;;;;3.58;2.75;;;;;;;5.80;59.87;94569.28;5091742;28;20069;-72
2022/11/25 00:03:38;;;;;;;3.15;2.33;;;;;;;5.75;59.65;94557.63;5074682;28;20036;-72
2022/11/25 00:06:20;;;;;;;4.32;2.65;;;;;;;5.85;59.73;94573.28;5074889;28;20055;-72
2022/11/25 00:08:48;;;;;;;4.07;3.03;;;;;;;5.78;59.49;94573.69;5075916;28;20032;-72
2022/11/25 00:11:13;;;;;;;4.22;2.83;;;;;;;5.80;59.74;94571.84;5091309;28;20407;-72
2022/11/25 00:13:39;;;;;;;3.22;2.45;;;;;;;5.73;59.15;94582.66;5074403;28;20504;-72
2022/11/25 00:16:07;;;;;;;3.50;2.50;;;;;;;5.60;59.75;94580.94;5057830;28;20039;-72
2022/11/25 00:18:32;;;;;;;4.22;2.88;;;;;;;5.67;59.33;94585.66;5057836;28;20028;-72
2022/11/25 00:20:58;;;;;;;4.40;2.90;;;;;;;5.62;59.98;94587.72;5074396;28;20119;-72
2022/11/25 00:23:23;;;;;;;4.03;2.50;;;;;;;5.68;60.30;94598.44;5091110;28;20039;-72
2022/11/25 00:25:49;;;;;;;4.65;3.05;;;;;;;5.67;60.04;94589.06;5090569;28;20075;-72
2022/11/25 00:28:16;;;;;;;3.83;2.85;;;;;;;5.67;60.08;94583.91;5091050;28;20024;-72
2022/11/25 00:30:41;;;;;;;3.60;2.65;;;;;;;5.74;59.51;94592.03;5091251;28;20486;-72
2022/11/25 00:33:07;;;;;;;4.13;2.90;;;;;;;5.52;60.20;94570.31;5073699;28;20039;-72
2022/11/25 00:35:34;;;;;;;4.32;2.63;;;;;;;5.60;59.67;94582.69;5090097;28;20040;-72
2022/11/25 00:37:59;;;;;;;4.28;2.88;;;;;;;5.66;59.78;94589.19;5073190;28;20020;-72
2022/11/25 00:40:25;;;;;;;4.05;3.38;;;;;;;5.66;60.34;94597.75;5091169;28;20039;-72
2022/11/25 00:45:35;;;;;;;12.35;6.70;;;;;;;5.47;61.04;94603.28;5091111;28;20070;-72
2022/11/25 00:48:00;;;;;;;6.95;4.05;;;;;;;5.36;61.43;94588.53;5073839;28;20028;-72
2022/11/25 00:50:26;;;;;;;6.43;3.85;;;;;;;5.52;61.25;94598.66;5090663;28;20032;-72
2022/11/25 00:52:51;;;;;;;4.75;3.40;;;;;;;5.55;61.32;94600.22;5091821;28;20523;-72
2022/11/25 00:55:16;;;;;;;5.00;3.20;;;;;;;5.60;61.41;94604.13;5099596;28;20036;-72
2022/11/25 00:57:42;;;;;;;6.20;3.75;;;;;;;5.48;61.63;94609.25;5112142;28;20036;-72
2022/11/25 01:00:09;;;;;;;5.20;3.80;;;;;;;5.51;61.48;94601.31;5110642;28;20039;-72
2022/11/25 01:02:34;;;;;;;5.82;3.50;;;;;;;5.52;61.21;94593.50;5093667;28;20039;-72
2022/11/25 01:05:00;;;;;;;4.88;3.67;;;;;;;5.59;60.75;94596.47;5110598;28;20492;-72
2022/11/25 01:07:25;;;;;;;5.35;3.35;;;;;;;5.44;61.11;94595.75;5110689;28;20098;-72
2022/11/25 01:09:51;;;;;;;5.65;4.13;;;;;;;5.52;61.01;94598.66;5110642;28;20035;-72
2022/11/25 01:12:16;;;;;;;4.50;3.55;;;;;;;5.51;60.83;94580.72;5110424;28;20398;-72
2022/11/25 01:14:42;;;;;;;3.97;3.00;;;;;;;5.48;61.38;94594.63;5093580;28;20116;-72
2022/11/25 01:17:07;;;;;;;4.28;3.30;;;;;;;5.51;61.10;94593.59;5076576;28;20489;-72
2022/11/25 01:19:33;;;;;;;5.07;3.65;;;;;;;5.48;60.88;94591.22;5093405;28;20043;-72
2022/11/25 01:21:59;;;;;;;4.28;3.40;;;;;;;5.61;60.67;94599.78;5093376;28;20087;-72
2022/11/25 01:24:25;;;;;;;6.00;3.42;;;;;;;5.55;60.99;94592.47;5111473;28;20020;-72
2022/11/25 01:26:51;;;;;;;4.25;3.17;;;;;;;5.43;60.88;94594.09;5111388;28;20015;-72
2022/11/25 01:29:17;;;;;;;3.95;2.88;;;;;;;5.41;61.21;94569.38;5076231;28;20026;-72
2022/11/25 01:31:43;;;;;;;4.30;2.92;;;;;;;5.50;61.28;94595.34;5093777;28;20023;-72
2022/11/25 01:34:16;;;;;;;4.22;3.13;;;;;;;5.58;61.21;94581.97;5110197;28;20528;-72
2022/11/25 01:36:42;;;;;;;3.72;2.80;;;;;;;5.66;60.22;94586.59;5111457;28;20040;-72
2022/11/25 01:39:07;;;;;;;3.65;2.67;;;;;;;5.51;60.26;94568.66;5093436;28;20404;-73
2022/11/25 01:41:33;;;;;;;3.85;2.72;;;;;;;5.53;60.52;94584.84;5076491;28;20032;-72
2022/11/25 01:44:18;;;;;;;4.78;2.70;;;;;;;5.58;59.64;94581.97;5110083;28;20023;-72
2022/11/25 01:46:57;;;;;;;3.35;2.50;;;;;;;5.65;59.60;94570.28;5077120;28;20042;-72
2022/11/25 01:49:25;;;;;;;3.45;2.47;;;;;;;5.63;59.56;94572.19;5111332;28;20016;-72
2022/11/25 01:52:08;;;;;;;3.17;2.60;;;;;;;5.57;59.68;94567.41;5111224;28;20020;-72
2022/11/25 01:54:39;;;;;;;4.57;2.25;;;;;;;5.66;59.33;94547.94;5109503;28;20027;-72
2022/11/25 01:57:13;;;;;;;3.55;2.70;;;;;;;5.71;59.43;94557.03;5089644;28;20506;-72
2022/11/25 01:59:41;;;;;;;4.97;3.15;;;;;;;5.60;59.09;94551.75;5072968;28;20387;-72
2022/11/25 02:02:06;;;;;;;3.42;2.50;;;;;;;5.70;58.79;94549.38;5072947;28;20429;-72
2022/11/25 02:04:32;;;;;;;4.63;2.42;;;;;;;5.74;58.45;94567.13;5072713;28;20040;-72
2022/11/25 02:07:02;;;;;;;4.10;2.70;;;;;;;5.76;58.58;94556.69;5072693;28;20027;-72
2022/11/25 02:09:28;;;;;;;3.65;2.50;;;;;;;5.79;58.12;94562.47;5073072;28;20028;-72
2022/11/25 02:11:53;;;;;;;3.53;2.50;;;;;;;5.64;59.13;94570.41;5089417;28;20052;-72
2022/11/25 02:14:18;;;;;;;3.95;2.83;;;;;;;5.74;58.69;94566.28;5072504;28;20032;-72
2022/11/25 02:16:44;;;;;;;3.15;2.38;;;;;;;5.77;58.48;94561.75;5089526;28;20036;-72
2022/11/25 02:19:17;;;;;;;3.30;2.30;;;;;;;5.87;58.79;94579.16;5072767;28;20082;-72
2022/11/25 02:21:45;;;;;;;3.50;2.58;;;;;;;5.82;58.11;94579.47;5089476;28;20127;-72
2022/11/25 02:24:38;;;;;;;3.45;2.60;;;;;;;5.86;57.89;94575.75;5056014;28;20052;-72
2022/11/25 02:27:03;;;;;;;3.80;2.45;;;;;;;5.63;58.27;94572.19;5090213;28;20163;-72
2022/11/25 02:29:29;;;;;;;3.70;3.00;;;;;;;5.77;58.19;94586.72;5089305;28;20028;-72
2022/11/25 02:31:55;;;;;;;4.22;2.42;;;;;;;5.80;57.82;94577.00;5089291;28;20064;-72
2022/11/25 02:34:20;;;;;;;3.40;2.50;;;;;;;5.79;57.69;94579.69;5089569;28;20470;-72
2022/11/25 02:36:46;;;;;;;3.45;2.20;;;;;;;5.73;57.07;94593.81;5089304;28;20460;-72
2022/11/25 02:39:11;;;;;;;4.05;2.22;;;;;;;5.75;57.23;94591.97;5072443;28;20494;-72
2022/11/25 02:41:44;;;;;;;3.35;2.22;;;;;;;5.73;57.17;94591.22;5072379;28;20062;-72
2022/11/25 02:44:09;;;;;;;3.00;2.10;;;;;;;5.71;57.40;94590.53;5089180;28;20065;-72
2022/11/25 02:46:35;;;;;;;3.92;2.35;;;;;;;5.74;57.49;94582.59;5089433;28;20470;-72
2022/11/25 02:49:00;;;;;;;4.22;2.10;;;;;;;5.75;57.08;94581.66;5075073;28;20558;-72
2022/11/25 02:51:27;;;;;;;3.25;2.30;;;;;;;5.83;57.08;94587.09;5076359;28;20039;-72
2022/11/25 02:53:53;;;;;;;3.10;2.03;;;;;;;5.78;57.37;94584.00;5092897;28;20312;-72
2022/11/25 02:56:22;;;;;;;3.67;2.33;;;;;;;5.78;56.71;94598.66;5075663;28;20122;-72
2022/11/25 02:58:48;;;;;;;3.97;2.03;;;;;;;5.69;57.45;94592.38;5096342;28;20034;-72
2022/11/25 03:01:13;;;;;;;3.50;2.30;;;;;;;5.63;57.30;94608.25;5113067;28;20027;-72
2022/11/25 03:03:39;;;;;;;3.80;2.10;;;;;;;5.46;57.79;94587.91;5114189;28;20109;-72
2022/11/25 03:06:04;;;;;;;4.55;2.55;;;;;;;5.56;57.91;94604.41;5096358;28;20031;-72
2022/11/25 03:08:30;;;;;;;3.72;2.22;;;;;;;5.49;57.91;94603.16;5114161;28;20034;-72
2022/11/25 03:10:55;;;;;;;3.53;2.72;;;;;;;5.60;57.94;94605.88;5113914;28;20493;-72
2022/11/25 03:13:21;;;;;;;2.97;2.08;;;;;;;5.46;58.38;94604.22;5112830;28;20374;-72
2022/11/25 03:15:46;;;;;;;3.08;2.30;;;;;;;5.58;58.77;94610.31;5095992;28;20078;-72
2022/11/25 03:18:11;;;;;;;4.63;2.90;;;;;;;5.60;59.01;94611.03;5095766;28;20016;-72
2022/11/25 03:20:37;;;;;;;3.45;2.45;;;;;;;5.64;58.69;94615.03;5112870;28;20035;-72
2022/11/25 03:23:03;;;;;;;3.55;2.50;;;;;;;5.54;58.90;94586.50;5113848;28;20084;-72
2022/11/25 03:25:28;;;;;;;3.60;2.45;;;;;;;5.62;59.17;94622.03;5095857;28;20039;-72
2022/11/25 03:27:54;;;;;;;3.17;2.40;;;;;;;5.35;59.70;94607.50;5112705;28;20038;-72
2022/11/25 03:30:21;;;;;;;11.15;4.97;;;;;;;5.39;59.52;94610.69;5113644;28;20039;-72
2022/11/25 03:32:46;;;;;;;4.38;2.92;;;;;;;5.53;59.93;94623.47;5095640;28;20027;-72
2022/11/25 03:35:12;;;;;;;5.30;3.05;;;;;;;5.48;60.03;94632.44;5095476;28;20035;-72
2022/11/25 03:37:37;;;;;;;3.63;2.70;;;;;;;5.50;60.04;94634.00;5112500;28;20061;-72
2022/11/25 03:40:03;;;;;;;6.15;4.15;;;;;;;5.42;60.45;94623.38;5112378;28;20039;-72
2022/11/25 03:42:29;;;;;;;4.85;3.40;;;;;;;5.54;60.41;94637.19;5095448;28;20032;-72
2022/11/25 03:44:54;;;;;;;5.93;3.30;;;;;;;5.53;60.47;94630.41;5113496;28;20036;-72
2022/11/25 03:47:20;;;;;;;4.60;3.00;;;;;;;5.56;60.56;94637.91;5112330;28;20027;-72
2022/11/25 03:49:45;;;;;;;4.75;3.63;;;;;;;5.59;60.58;94632.56;5113404;28;20065;-72
2022/11/25 03:52:11;;;;;;;4.30;3.00;;;;;;;5.45;61.29;94643.78;5095222;28;20481;-72
2022/11/25 03:54:36;;;;;;;5.25;2.95;;;;;;;5.32;61.93;94648.06;5111170;28;20607;-72
2022/11/25 03:57:02;;;;;;;3.85;2.95;;;;;;;5.41;62.05;94641.50;5092898;28;20024;-72
2022/11/25 03:59:27;;;;;;;5.50;3.63;;;;;;;5.41;61.76;94633.78;5090535;28;20410;-72
2022/11/25 04:01:53;;;;;;;4.00;2.95;;;;;;;5.35;61.93;94641.00;5091460;28;20020;-72
2022/11/25 04:04:18;;;;;;;3.95;2.80;;;;;;;5.26;62.19;94644.13;5092662;28;20028;-72
2022/11/25 04:06:43;;;;;;;3.65;2.95;;;;;;;5.29;62.04;94646.53;5092848;28;20410;-72
2022/11/25 04:09:10;;;;;;;3.65;3.08;;;;;;;5.36;61.77;94655.50;5092602;28;20375;-72
2022/11/25 04:14:20;;;;;;;4.90;3.60;;;;;;;5.20;62.00;94639.38;5091544;28;20085;-72
2022/11/25 04:16:45;;;;;;;9.05;6.80;;;;;;;5.24;62.21;94646.00;5074513;28;20028;-72
2022/11/25 04:19:11;;;;;;;7.32;4.13;;;;;;;5.24;62.11;94661.47;5092431;28;20031;-72
2022/11/25 04:21:36;;;;;;;6.25;3.72;;;;;;;5.15;62.29;94659.44;5074554;28;20032;-72
2022/11/25 04:24:02;;;;;;;5.10;2.70;;;;;;;5.16;62.23;94663.69;5091078;28;20031;-72
2022/11/25 04:26:28;;;;;;;3.50;2.60;;;;;;;5.13;62.07;94669.06;5057997;28;20194;-72
2022/11/25 04:28:54;;;;;;;3.28;2.15;;;;;;;5.17;62.03;94678.22;5092244;28;20027;-72
2022/11/25 04:31:19;;;;;;;3.45;2.30;;;;;;;5.03;62.47;94678.28;5092377;28;20488;-72
2022/11/25 04:33:45;;;;;;;3.25;2.15;;;;;;;5.03;62.32;94686.00;5073091;28;20390;-71
2022/11/25 04:36:10;;;;;;;3.17;2.20;;;;;;;5.08;62.10;94681.38;5090147;28;20441;-72
2022/11/25 04:38:36;;;;;;;3.00;2.33;;;;;;;5.11;62.10;94688.91;5089910;28;20498;-72
2022/11/25 04:41:01;;;;;;;2.92;2.20;;;;;;;5.04;61.93;94680.75;5073392;28;20045;-72
2022/11/25 04:43:27;;;;;;;3.65;2.45;;;;;;;5.02;62.17;94686.94;5073779;28;20501;-72
2022/11/25 04:45:52;;;;;;;4.93;3.88;;;;;;;4.96;62.52;94690.72;5092251;28;20043;-72
2022/11/25 04:48:18;;;;;;;8.65;5.72;;;;;;;4.98;62.21;94701.72;5091903;28;20024;-72
2022/11/25 04:50:43;;;;;;;5.68;3.75;;;;;;;4.79;62.53;94684.03;5090948;28;20036;-72
2022/11/25 04:53:09;;;;;;;3.10;2.42;;;;;;;4.80;62.36;94693.41;5073553;28;20548;-72
2022/11/25 04:55:34;;;;;;;3.50;2.58;;;;;;;4.98;62.29;94711.19;5083853;28;20036;-72
2022/11/25 04:58:00;;;;;;;6.35;3.17;;;;;;;4.79;62.61;94696.91;5110909;28;20494;-72
2022/11/25 05:00:25;;;;;;;4.70;3.45;;;;;;;4.89;62.35;94692.81;5093785;28;20024;-72
2022/11/25 05:02:50;;;;;;;6.00;3.75;;;;;;;4.97;62.60;94722.44;5110573;28;20039;-72
2022/11/25 05:05:16;;;;;;;3.50;2.53;;;;;;;4.93;62.31;94716.63;5110783;28;20040;-72
2022/11/25 05:07:41;;;;;;;4.20;2.42;;;;;;;4.89;62.33;94721.16;5093768;28;20489;-72
2022/11/25 05:10:07;;;;;;;3.10;2.50;;;;;;;4.77;62.62;94715.94;5093353;28;20417;-72
2022/11/25 05:12:33;;;;;;;3.90;2.20;;;;;;;4.95;62.63;94727.66;5093775;28;20421;-72
2022/11/25 05:14:58;;;;;;;3.30;2.72;;;;;;;4.92;62.54;94736.41;5093613;28;20113;-72
2022/11/25 05:17:25;;;;;;;3.22;2.30;;;;;;;4.84;62.58;94736.03;5110629;28;20482;-72
2022/11/25 05:19:51;;;;;;;3.72;2.60;;;;;;;4.84;62.68;94741.19;5075389;28;20027;-72
2022/11/25 05:22:18;;;;;;;3.28;2.92;;;;;;;4.88;62.48;94737.53;5106497;28;20413;-73
2022/11/25 05:24:43;;;;;;;4.18;2.50;;;;;;;4.92;62.19;94744.13;5104299;27;20031;-72
2022/11/25 05:27:09;;;;;;;4.68;2.92;;;;;;;4.78;62.54;94739.00;5108881;27;20038;-72
2022/11/25 05:29:34;;;;;;;3.50;2.30;;;;;;;4.69;62.46;94731.84;5100515;28;20412;-72
2022/11/25 05:32:00;;;;;;;4.22;2.65;;;;;;;4.80;62.41;94750.03;5081317;28;20054;-72
2022/11/25 05:34:25;;;;;;;3.60;2.70;;;;;;;4.82;62.22;94767.94;5081804;28;20475;-72
2022/11/25 05:36:51;;;;;;;5.20;3.78;;;;;;;4.74;61.85;94773.56;5080741;28;20027;-72
2022/11/25 05:39:17;;;;;;;3.35;2.40;;;;;;;4.78;61.38;94769.06;5090563;28;20382;-72
2022/11/25 05:41:42;;;;;;;2.92;2.38;;;;;;;4.80;61.19;94765.47;5089421;28;20158;-72
2022/11/25 05:44:08;;;;;;;3.50;2.13;;;;;;;4.81;60.81;94776.59;5068015;28;20024;-72
2022/11/25 05:46:33;;;;;;;4.20;2.85;;;;;;;4.85;60.59;94778.06;5110603;27;20034;-72
2022/11/25 05:48:59;;;;;;;3.33;2.05;;;;;;;4.84;60.21;94766.94;5110749;28;20059;-72
2022/11/25 05:51:24;;;;;;;4.05;2.85;;;;;;;4.86;60.19;94783.13;5080680;28;20067;-72
2022/11/25 05:53:50;;;;;;;3.35;2.20;;;;;;;5.05;59.97;94798.28;5084525;28;20066;-72
2022/11/25 05:56:16;;;;;;;5.63;2.83;;;;;;;5.07;60.15;94808.47;5104149;28;20058;-72
2022/11/25 05:58:41;;;;;;;6.45;4.50;;;;;;;5.06;59.84;94802.50;5088305;28;20028;-72
2022/11/25 06:01:08;;;;;;;4.88;3.30;;;;;;;5.12;59.75;94796.13;5100320;28;20028;-72
2022/11/25 06:03:33;;;;;;;6.30;2.20;;;;;;;5.16;59.51;94810.50;5087574;28;20072;-72
2022/11/25 06:05:59;;;;;;;3.10;2.30;;;;;;;5.32;59.40;94802.63;5104216;28;20203;-72
2022/11/25 06:08:25;;;;;;;2.45;1.80;;;;;;;5.36;58.67;94810.06;5104803;28;20118;-72
2022/11/25 06:10:50;;;;;;;3.15;2.20;;;;;;;5.18;58.97;94802.66;5104784;28;20028;-72
2022/11/25 06:13:16;;;;;;;3.90;2.00;;;;;;;5.37;58.59;94823.78;5103272;28;20535;-72
2022/11/25 06:15:42;;;;;;;4.57;2.83;;;;;;;5.47;58.35;94831.78;5104555;28;20024;-72
2022/11/25 06:18:08;;;;;;;5.03;2.78;;;;;;;5.36;58.00;94822.97;5105604;28;20032;-72
2022/11/25 06:20:34;;;;;;;3.25;2.67;;;;;;;5.46;58.01;94830.09;5105034;28;20041;-72
2022/11/25 06:22:59;;;;;;;5.47;3.78;;;;;;;5.48;58.36;94828.25;5104179;28;20485;-72
2022/11/25 06:25:25;;;;;;;10.43;8.02;;;;;;;5.50;57.99;94839.31;5109018;28;20027;-72
2022/11/25 06:27:50;;;;;;;6.45;4.20;;;;;;;5.48;58.21;94834.25;5106418;28;20038;-72
2022/11/25 06:30:16;;;;;;;8.00;5.20;;;;;;;5.43;58.48;94840.59;5088138;28;20031;-72
2022/11/25 06:32:42;;;;;;;6.72;3.20;;;;;;;5.44;58.04;94826.81;5105714;28;20479;-72
2022/11/25 06:35:08;;;;;;;5.10;3.30;;;;;;;5.60;57.73;94856.69;5098758;28;20039;-72
2022/11/25 06:37:33;;;;;;;9.23;4.93;;;;;;;5.60;57.90;94848.94;5112905;28;20486;-71
2022/11/25 06:39:58;;;;;;;6.63;4.38;;;;;;;5.60;57.63;94853.28;5098694;28;20062;-71
2022/11/25 06:42:24;;;;;;;4.28;2.47;;;;;;;5.64;56.63;94859.88;5091178;28;20031;-71
2022/11/25 06:44:49;;;;;;;3.35;2.60;;;;;;;5.47;56.71;94866.09;5091023;28;20464;-71
2022/11/25 06:47:15;;;;;;;3.65;2.75;;;;;;;5.62;56.75;94860.91;5091023;28;20016;-71
2022/11/25 06:49:40;;;;;;;4.15;3.10;;;;;;;5.59;56.93;94878.22;5093004;28;20043;-71
2022/11/25 06:52:06;;;;;;;3.42;2.40;;;;;;;5.66;56.18;94873.50;5108071;28;20040;-71
2022/11/25 06:54:32;;;;;;;4.57;3.13;;;;;;;5.75;56.41;94872.94;5114583;28;20043;-71
2022/11/25 06:56:57;;;;;;;4.50;3.08;;;;;;;5.73;56.62;94881.69;5113355;28;20413;-71
2022/11/25 06:59:23;;;;;;;4.80;2.97;;;;;;;5.83;56.29;94875.84;5113948;28;20411;-71
2022/11/25 07:01:48;;;;;;;3.92;2.90;;;;;;;5.67;56.23;94870.00;5112811;28;20023;-71
2022/11/25 07:04:13;;;;;;;3.53;2.83;;;;;;;5.88;56.41;94879.88;5096066;28;20020;-71
2022/11/25 07:06:39;;;;;;;3.85;2.70;;;;;;;5.89;56.46;94884.13;5114495;28;20347;-71
2022/11/25 07:09:04;;;;;;;4.32;3.25;;;;;;;5.97;56.96;94881.94;5095844;28;20047;-71
2022/11/25 07:11:35;;;;;;;5.30;3.72;;;;;;;6.03;56.33;94881.53;5130616;27;20100;-71
2022/11/25 07:14:03;;;;;;;5.22;3.28;;;;;;;6.10;56.29;94877.66;5133497;27;20084;-71
2022/11/25 07:16:29;;;;;;;4.78;3.22;;;;;;;6.10;56.10;94869.91;5093257;28;20062;-71
2022/11/25 07:18:55;;;;;;;4.00;3.25;;;;;;;6.19;56.57;94894.28;5102960;28;20480;-71
2022/11/25 07:21:23;;;;;;;4.53;3.90;;;;;;;6.34;55.49;94892.44;5096000;28;20040;-71
2022/11/25 07:23:49;;;;;;;4.32;2.72;;;;;;;6.19;55.49;94889.13;5094074;28;20042;-71
2022/11/25 07:26:16;;;;;;;4.55;3.13;;;;;;;6.37;55.40;94887.09;5090525;28;20039;-71
2022/11/25 07:28:42;;;;;;;3.40;2.80;;;;;;;6.45;55.42;94895.16;5112724;28;20114;-71
2022/11/25 07:31:09;;;;;;;3.50;2.65;;;;;;;6.45;55.36;94890.00;5112776;28;20482;-71
2022/11/25 07:33:34;;;;;;;3.80;2.90;;;;;;;6.44;54.99;94885.78;5107365;28;20085;-71
2022/11/25 07:36:02;;;;;;;4.55;3.40;;;;;;;6.39;55.13;94898.16;5095039;28;20047;-71
2022/11/25 07:38:27;;;;;;;4.18;2.85;;;;;;;6.39;55.24;94898.16;5093126;28;21402;-70
2022/11/25 07:40:52;;;;;;;5.22;3.45;;;;;;;6.36;55.23;94898.34;5097550;28;20031;-71
2022/11/25 07:43:18;;;;;;;4.00;3.40;;;;;;;6.34;54.86;94901.03;5111001;28;20036;-72
2022/11/25 07:45:43;;;;;;;4.03;3.30;;;;;;;6.45;55.55;94897.75;5107741;28;20035;-72
2022/11/25 07:48:09;;;;;;;4.68;2.97;;;;;;;6.43;55.54;94902.16;5100400;28;20160;-70
2022/11/25 07:50:34;;;;;;;4.28;2.78;;;;;;;6.43;55.17;94912.50;5109813;28;20040;-71
2022/11/25 07:53:00;;;;;;;3.90;3.10;;;;;;;6.49;54.71;94907.78;5112508;28;20015;-71
2022/11/25 07:55:25;;;;;;;4.82;3.03;;;;;;;6.64;54.60;94903.34;5112895;28;20032;-70
2022/11/25 07:57:50;;;;;;;3.95;2.97;;;;;;;6.60;55.15;94901.91;5104310;28;20024;-71
2022/11/25 08:00:16;;;;;;;4.05;3.10;;;;;;;6.81;54.58;94920.31;5092289;28;20040;-71
2022/11/25 08:02:42;;;;;;;3.78;3.00;;;;;;;6.92;54.68;94907.50;5092771;28;20034;-71
2022/11/25 08:05:08;;;;;;;6.07;3.30;;;;;;;7.07;53.85;94918.56;5091532;28;20043;-71
2022/11/25 08:07:33;;;;;;;4.10;2.88;;;;;;;7.15;53.30;94918.06;5092702;28;20077;-72
2022/11/25 08:09:59;;;;;;;4.65;3.40;;;;;;;7.27;52.96;94911.22;5092933;28;20105;-71
2022/11/25 08:12:24;;;;;;;4.07;3.20;;;;;;;7.36;52.84;94915.78;5091419;28;20149;-71
2022/11/25 08:14:49;;;;;;;4.13;2.67;;;;;;;7.39;52.19;94915.56;5091293;28;20024;-71
2022/11/25 08:17:15;;;;;;;3.80;3.17;;;;;;;7.53;52.54;94917.19;5092622;28;20031;-71
2022/11/25 08:19:40;;;;;;;4.65;2.97;;;;;;;7.74;52.36;94914.88;5092545;28;20032;-71
2022/11/25 08:22:06;;;;;;;4.65;3.47;;;;;;;7.82;51.83;94918.56;5091246;28;20528;-71
2022/11/25 08:24:31;;;;;;;4.50;3.63;;;;;;;8.06;52.18;94920.38;5091459;28;20509;-71
2022/11/25 08:27:00;;;;;;;5.35;3.63;;;;;;;8.11;50.68;94923.47;5092430;28;20024;-71
2022/11/25 08:29:25;;;;;;;8.23;3.80;;;;;;;8.11;50.20;94923.47;5091101;28;20020;-71
2022/11/25 08:31:51;;;;;;;5.55;3.60;;;;;;;8.23;50.92;94922.56;5092383;28;20082;-71
2022/11/25 08:34:25;;;;;;;5.55;3.67;;;;;;;8.41;50.15;94927.38;5090969;28;20493;-71
2022/11/25 08:36:51;;;;;;;5.15;4.05;;;;;;;8.31;50.12;94924.63;5074025;28;20062;-71
2022/11/25 08:39:17;;;;;;;4.68;3.50;;;;;;;8.21;50.05;94916.66;5073983;28;20028;-71
2022/11/25 08:41:42;;;;;;;4.30;3.42;;;;;;;8.21;50.26;94921.84;5090945;28;20028;-71
2022/11/25 08:44:08;;;;;;;6.10;3.70;;;;;;;8.45;50.64;94921.88;5073823;28;20112;-71
2022/11/25 08:46:35;;;;;;;5.53;3.50;;;;;;;8.47;50.15;94930.38;5090456;28;20490;-72
2022/11/25 08:49:01;;;;;;;3.55;3.05;;;;;;;8.41;49.03;94915.28;5073795;28;20024;-71
2022/11/25 08:51:29;;;;;;;5.03;3.60;;;;;;;8.48;49.36;94932.00;5090659;28;20043;-72
2022/11/25 08:53:54;;;;;;;5.65;4.05;;;;;;;8.53;49.58;94923.91;5090612;28;20055;-71
2022/11/25 08:56:20;;;;;;;7.45;3.55;;;;;;;8.54;49.96;94938.50;5073983;28;20049;-72
2022/11/25 08:58:48;;;;;;;5.50;3.97;;;;;;;8.58;49.87;94919.25;5090889;28;20032;-71
2022/11/25 09:01:13;;;;;;;6.32;3.40;;;;;;;8.64;49.13;94915.38;5074051;28;20055;-71
2022/11/25 09:03:41;;;;;;;4.90;3.67;;;;;;;8.77;48.66;94923.88;5090431;28;20489;-71
2022/11/25 09:06:07;;;;;;;5.68;4.45;;;;;;;8.71;48.78;94901.84;5090638;28;20032;-71
2022/11/25 09:08:32;;;;;;;5.00;3.53;;;;;;;8.62;48.93;94909.47;5073608;28;20054;-71
2022/11/25 09:10:58;;;;;;;5.57;3.90;;;;;;;8.59;49.68;94920.06;5073541;28;20390;-71
2022/11/25 09:13:24;;;;;;;6.88;3.50;;;;;;;8.64;48.75;94902.41;5073568;28;20494;-71
2022/11/25 09:15:49;;;;;;;5.55;3.60;;;;;;;8.56;48.98;94921.09;5090443;28;20459;-71
2022/11/25 09:18:15;;;;;;;4.72;3.35;;;;;;;8.56;49.38;94930.66;5091544;28;20020;-71
2022/11/25 09:20:41;;;;;;;4.50;3.33;;;;;;;8.56;49.09;94928.88;5090257;28;20493;-71
2022/11/25 09:23:07;;;;;;;8.70;3.63;;;;;;;8.55;48.79;94928.97;5091288;28;20077;-71
2022/11/25 09:25:32;;;;;;;5.05;3.53;;;;;;;8.43;49.26;94926.34;5073221;28;20047;-72
2022/11/25 09:27:58;;;;;;;5.55;3.90;;;;;;;8.41;49.34;94925.66;5073279;28;20052;-71
2022/11/25 09:30:23;;;;;;;9.82;4.85;;;;;;;8.61;49.48;94925.94;5056548;28;20071;-71
2022/11/25 09:32:49;;;;;;;6.63;4.40;;;;;;;8.63;49.70;94918.88;5091687;28;20041;-71
2022/11/25 09:35:15;;;;;;;6.00;4.22;;;;;;;8.67;49.74;94925.50;5093131;28;20035;-71
2022/11/25 09:37:41;;;;;;;4.70;3.65;;;;;;;8.54;49.52;94920.38;5110105;28;20557;-71
2022/11/25 09:40:07;;;;;;;5.43;3.42;;;;;;;8.71;48.87;94921.72;5109945;28;20409;-71
2022/11/25 09:48:22;;;;;;;4.60;3.33;;;;;;;8.77;49.40;94936.81;5108805;28;20042;-71
2022/11/25 09:51:09;;;;;;;6.28;4.35;;;;;;;8.85;49.24;94939.66;5111697;28;20072;-71
2022/11/25 09:53:43;;;;;;;5.60;3.70;;;;;;;8.89;49.38;94937.69;5093060;28;20132;-71
2022/11/25 09:56:24;;;;;;;17.73;4.20;;;;;;;8.72;49.38;94928.59;5093476;28;20039;-71
2022/11/25 09:59:04;;;;;;;7.80;4.00;;;;;;;8.78;49.78;94938.47;5109314;28;20035;-71
2022/11/25 10:01:29;;;;;;;5.15;3.65;;;;;;;8.90;49.08;94936.75;5110373;28;20038;-71
2022/11/25 10:04:04;;;;;;;6.05;3.72;;;;;;;8.93;49.35;94939.94;5092933;28;20118;-71
2022/11/25 10:06:35;;;;;;;5.72;3.85;;;;;;;8.93;49.27;94915.78;5076469;28;20035;-71
2022/11/25 10:09:12;;;;;;;5.15;3.88;;;;;;;9.13;49.30;94935.03;5109869;28;20032;-71
2022/11/25 10:12:01;;;;;;;7.50;5.20;;;;;;;9.13;48.89;94935.03;5109911;28;20509;-71
2022/11/25 10:14:33;;;;;;;5.28;4.03;;;;;;;9.16;47.99;94929.59;5094475;28;20558;-71
2022/11/25 10:17:04;;;;;;;5.32;3.88;;;;;;;9.10;48.25;94898.97;5093577;28;20031;-71
2022/11/25 10:20:14;;;;;;;6.50;4.03;;;;;;;9.13;48.01;94929.84;5111084;28;20501;-71
2022/11/25 10:22:42;;;;;;;10.73;3.50;;;;;;;9.26;48.22;94948.72;5108714;28;20082;-71
2022/11/25 10:25:16;;;;;;;4.03;3.00;;;;;;;9.24;47.90;94942.00;5076137;28;20119;-71
2022/11/25 10:27:58;;;;;;;3.90;2.85;;;;;;;9.20;47.48;94936.22;5093495;28;20042;-71
2022/11/25 10:30:31;;;;;;;4.00;2.83;;;;;;;9.37;47.84;94935.75;5109564;28;20028;-71
2022/11/25 10:33:13;;;;;;;3.70;2.88;;;;;;;9.25;47.89;94928.09;5093100;28;20027;-71
2022/11/25 10:35:43;;;;;;;5.35;2.70;;;;;;;9.31;47.86;94925.88;5111226;28;20494;-71
2022/11/25 10:38:16;;;;;;;4.32;2.88;;;;;;;9.07;47.69;94901.81;5093333;28;20110;-71
2022/11/25 10:40:44;;;;;;;3.67;2.50;;;;;;;9.20;48.20;94927.63;5093075;28;20043;-71
2022/11/25 10:43:13;;;;;;;3.72;2.63;;;;;;;9.28;48.00;94923.50;5092774;28;20100;-72
2022/11/25 10:45:55;;;;;;;4.47;2.70;;;;;;;9.37;46.80;94933.19;5111095;28;20036;-71
2022/11/25 10:48:33;;;;;;;5.10;2.50;;;;;;;9.23;47.21;94915.25;5109724;28;20036;-71
2022/11/25 10:51:25;;;;;;;4.05;2.13;;;;;;;9.17;47.18;94944.22;5109854;28;20071;-71
2022/11/25 10:54:21;;;;;;;3.45;2.20;;;;;;;9.15;47.29;94940.94;5092394;28;20035;-71
2022/11/25 10:56:55;;;;;;;6.22;3.10;;;;;;;9.06;47.19;94931.25;5091104;28;20054;-71
2022/11/25 10:59:35;;;;;;;8.13;5.60;;;;;;;8.89;47.37;94901.44;5110672;28;20027;-71
2022/11/25 11:02:20;;;;;;;6.47;4.47;;;;;;;9.09;47.21;94941.38;5092343;28;20036;-71
2022/11/25 11:04:52;;;;;;;4.03;2.60;;;;;;;9.12;47.01;94954.94;5109406;28;20408;-71
2022/11/25 11:07:17;;;;;;;;;;;;;;;9.00;47.16;94947.25;5111148;28;20064;-71
2022/11/25 11:09:44;;;;;;;4.53;2.50;;;;;;;8.76;47.71;94966.25;5112925;28;19915;-71
2022/11/25 11:12:28;;;;;;;3.55;2.15;;;;;;;8.57;47.85;94945.22;5114271;28;20131;-71
2022/11/25 11:15:14;;;;;;;3.60;2.30;;;;;;;8.55;47.96;94957.44;5096058;28;20126;-71
2022/11/25 11:17:39;;;;;;;6.82;2.63;;;;;;;8.44;48.57;94966.00;5113009;28;20030;-71
2022/11/25 11:20:12;;;;;;;4.18;2.78;;;;;;;8.45;48.38;94970.25;5112869;28;20076;-72
2022/11/25 11:22:45;;;;;;;5.03;2.83;;;;;;;8.37;49.10;94963.00;5114016;28;20475;-71
2022/11/25 11:25:25;;;;;;;4.25;2.80;;;;;;;8.56;49.50;94959.13;5114171;28;20038;-71
2022/11/25 11:27:51;;;;;;;5.97;3.30;;;;;;;8.48;49.34;94946.72;5112815;28;20024;-71
2022/11/25 11:30:22;;;;;;;7.00;3.53;;;;;;;8.55;49.56;94960.03;5112723;28;20031;-71
2022/11/25 11:33:05;;;;;;;5.43;3.15;;;;;;;8.48;50.06;94967.44;5096491;28;20409;-71
2022/11/25 11:35:42;;;;;;;7.30;3.30;;;;;;;8.31;50.10;94963.44;5096663;28;20504;-71
2022/11/25 11:38:36;;;;;;;4.28;3.08;;;;;;;8.40;50.74;94980.09;5113835;28;20027;-71
2022/11/25 11:41:14;;;;;;;4.57;3.17;;;;;;;8.33;49.94;94965.91;5098027;28;20028;-71
2022/11/25 11:43:49;;;;;;;8.23;3.50;;;;;;;8.40;50.26;94961.97;5112377;28;20122;-71
2022/11/25 11:46:17;;;;;;;5.55;3.60;;;;;;;8.41;50.09;94976.56;5112471;28;20489;-72
2022/11/25 11:49:21;;;;;;;4.70;3.10;;;;;;;8.37;50.20;94981.13;5113532;28;20076;-72
2022/11/25 11:51:47;;;;;;;5.50;3.20;;;;;;;8.29;50.25;94983.41;5088777;28;20050;-73
2022/11/25 11:54:34;;;;;;;4.93;3.30;;;;;;;8.21;50.56;94983.97;5113250;28;20111;-72
2022/11/25 11:57:11;;;;;;;4.90;3.50;;;;;;;8.26;51.22;94975.88;5112181;28;20043;-72